Time;durP1;ratioP1;P1;durP2;ratioP2;P2;SDS_P1;SDS_P2;PMS_P1;PMS_P2;Temp;Humidity;BMP_temperature;BMP_pressure;BME280_temperature;BME280_humidity;BME280_pressure;Samples;Min_cycle;Max_cycle;Signal;HPM_P1;HPM_P2
2024/03/13 05:01:30;;;;;;;2.47;2.27;;;5.60;97.30;;;;;;5602798;23;20985;-85
2024/03/13 05:03:56;;;;;;;3.27;3.07;;;5.50;97.30;;;;;;4989196;28;20800;-87
2024/03/13 05:06:24;;;;;;;3.87;3.10;;;5.40;97.30;;;;;;4969492;28;20418;-87
2024/03/13 05:08:50;;;;;;;10.87;3.37;;;5.30;97.30;;;;;;4971571;28;20225;-87
2024/03/13 05:11:17;;;;;;;3.50;2.70;;;5.30;97.30;;;;;;4981113;28;20857;-87
2024/03/13 05:13:45;;;;;;;2.60;2.40;;;5.20;97.30;;;;;;4970415;28;20269;-87
2024/03/13 05:16:15;;;;;;;3.70;3.57;;;5.10;97.30;;;;;;4978406;28;20512;-85
2024/03/13 05:18:47;;;;;;;3.97;3.77;;;5.10;97.30;;;;;;4965759;28;20491;-83
2024/03/13 05:21:14;;;;;;;14.53;2.77;;;5.10;97.30;;;;;;4977722;28;20437;-89
2024/03/13 05:23:39;;;;;;;2.40;2.00;;;5.10;97.30;;;;;;4971050;28;20532;-87
2024/03/13 05:26:06;;;;;;;6.00;2.20;;;5.00;97.30;;;;;;4964039;28;20419;-87
2024/03/13 05:28:35;;;;;;;3.27;2.53;;;5.00;97.30;;;;;;4972301;28;20190;-85
2024/03/13 05:31:01;;;;;;;1.37;1.27;;;4.90;97.30;;;;;;4972765;28;20444;-86
2024/03/13 05:33:26;;;;;;;2.50;2.30;;;4.90;97.30;;;;;;4977126;28;20460;-87
2024/03/13 05:35:52;;;;;;;4.03;3.80;;;4.80;97.30;;;;;;4974508;28;20425;-87
2024/03/13 05:38:19;;;;;;;3.97;2.83;;;4.80;97.30;;;;;;4953091;28;20202;-86
2024/03/13 05:40:45;;;;;;;7.80;2.33;;;4.80;97.30;;;;;;4984828;23;20782;-65
2024/03/13 05:43:11;;;;;;;4.67;2.90;;;4.80;97.30;;;;;;4972626;28;20948;-65
2024/03/13 05:45:36;;;;;;;8.50;4.40;;;4.80;97.30;;;;;;4968273;28;20177;-65
2024/03/13 05:48:02;;;;;;;2.57;2.43;;;4.80;97.30;;;;;;4968543;28;20170;-65
2024/03/13 05:50:28;;;;;;;3.83;1.90;;;4.80;97.30;;;;;;4970958;28;20760;-66
2024/03/13 05:52:53;;;;;;;2.17;2.00;;;4.80;97.30;;;;;;4984987;28;20503;-65
2024/03/13 05:55:19;;;;;;;8.33;2.80;;;4.80;97.30;;;;;;4972565;28;20214;-65
2024/03/13 05:57:44;;;;;;;4.90;4.60;;;4.80;97.30;;;;;;4972053;28;20177;-66
2024/03/13 06:00:13;;;;;;;2.93;1.80;;;4.70;97.30;;;;;;4989722;28;20200;-65
2024/03/13 06:02:42;;;;;;;4.77;4.47;;;4.70;97.30;;;;;;4989910;28;20186;-65
2024/03/13 06:05:17;;;;;;;3.87;3.67;;;4.60;97.30;;;;;;4989356;28;20429;-66
2024/03/13 06:07:43;;;;;;;3.03;2.47;;;4.60;97.30;;;;;;4996264;28;20647;-65
2024/03/13 06:10:10;;;;;;;5.50;3.60;;;4.60;97.30;;;;;;4989505;28;20523;-65
2024/03/13 06:12:36;;;;;;;2.00;1.90;;;4.60;97.30;;;;;;4988138;28;20921;-66
2024/03/13 06:15:12;;;;;;;2.70;1.23;;;4.60;97.30;;;;;;4970192;28;20553;-65
2024/03/13 06:17:37;;;;;;;2.70;2.50;;;4.60;97.30;;;;;;4967931;28;20425;-65
2024/03/13 06:20:06;;;;;;;21.27;2.60;;;4.70;97.30;;;;;;4968056;28;20435;-65
2024/03/13 06:22:32;;;;;;;3.93;3.73;;;4.70;97.30;;;;;;4968376;28;20185;-65
2024/03/13 06:25:00;;;;;;;3.20;2.00;;;4.70;97.30;;;;;;4968810;28;20431;-65
2024/03/13 06:27:29;;;;;;;2.73;2.53;;;4.80;97.30;;;;;;4969516;28;20265;-65
2024/03/13 06:29:59;;;;;;;42.60;3.10;;;4.80;97.30;;;;;;4989837;28;20425;-65
2024/03/13 06:32:33;;;;;;;1.87;1.77;;;4.90;97.30;;;;;;4993624;28;20437;-65
2024/03/13 06:35:00;;;;;;;2.77;2.40;;;5.00;97.30;;;;;;4975131;28;20424;-65
2024/03/13 06:37:27;;;;;;;2.77;2.57;;;5.10;97.30;;;;;;4969010;28;20452;-65
2024/03/13 06:39:57;;;;;;;3.80;2.70;;;5.20;97.30;;;;;;4968663;28;20524;-65
2024/03/13 06:42:24;;;;;;;4.37;2.60;;;5.30;97.30;;;;;;4995292;28;20467;-65
2024/03/13 06:44:49;;;;;;;2.97;2.77;;;5.40;97.30;;;;;;4979071;28;20511;-65
2024/03/13 06:47:31;;;;;;;3.13;2.50;;;5.50;97.30;;;;;;4983977;28;20416;-65
2024/03/13 06:49:57;;;;;;;3.53;2.90;;;5.60;97.30;;;;;;4971320;28;20954;-65
2024/03/13 06:52:24;;;;;;;2.60;2.40;;;5.70;97.30;;;;;;4986040;23;20550;-85
2024/03/13 06:54:49;;;;;;;5.13;3.80;;;5.90;97.30;;;;;;4996753;28;20190;-84
2024/03/13 06:57:15;;;;;;;6.53;3.90;;;6.00;97.30;;;;;;4981894;28;20455;-84
2024/03/13 06:59:41;;;;;;;2.67;2.47;;;6.20;97.30;;;;;;4981072;28;20268;-82
2024/03/13 07:02:13;;;;;;;6.63;3.33;;;6.40;97.30;;;;;;4967299;28;20322;-83
2024/03/13 07:04:38;;;;;;;4.43;4.13;;;6.50;97.30;;;;;;4959766;28;20422;-83
2024/03/13 07:07:04;;;;;;;6.93;4.50;;;6.70;97.30;;;;;;4953834;29;20433;-82
2024/03/13 07:09:30;;;;;;;9.07;5.13;;;6.80;97.30;;;;;;4951936;28;20249;-83
2024/03/13 07:11:55;;;;;;;3.40;3.20;;;7.00;97.30;;;;;;4957692;28;20230;-82
2024/03/13 07:14:21;;;;;;;5.17;4.87;;;7.20;97.30;;;;;;4951925;28;20293;-83
2024/03/13 07:16:47;;;;;;;5.17;4.47;;;7.30;97.30;;;;;;4949063;28;20209;-83
2024/03/13 07:19:13;;;;;;;3.20;2.50;;;7.50;97.30;;;;;;4949468;28;20903;-85
2024/03/13 07:21:40;;;;;;;4.90;3.53;;;7.60;97.30;;;;;;4950815;28;20719;-83
2024/03/13 07:24:06;;;;;;;6.43;5.00;;;7.70;97.30;;;;;;4949205;29;20191;-82
2024/03/13 07:26:32;;;;;;;5.80;3.27;;;7.80;97.30;;;;;;4946667;28;20480;-83
2024/03/13 07:28:58;;;;;;;2.40;2.20;;;8.00;97.30;;;;;;4953847;29;20811;-83
2024/03/13 07:31:23;;;;;;;8.93;4.77;;;8.00;97.30;;;;;;4951778;28;20266;-83
2024/03/13 07:33:52;;;;;;;8.77;5.40;;;8.20;97.30;;;;;;4957123;28;21015;-83
2024/03/13 07:36:21;;;;;;;8.07;3.63;;;8.30;97.30;;;;;;4952190;28;20265;-83
2024/03/13 07:38:47;;;;;;;11.70;6.87;;;8.50;97.30;;;;;;4970837;28;20468;-82
2024/03/13 07:41:12;;;;;;;4.20;2.77;;;8.60;97.30;;;;;;4949569;28;20426;-82
2024/03/13 07:43:38;;;;;;;3.33;2.97;;;8.60;97.30;;;;;;4943976;28;20433;-83
2024/03/13 07:46:04;;;;;;;7.70;6.00;;;8.70;97.30;;;;;;4955059;28;20342;-82
2024/03/13 07:48:29;;;;;;;11.17;5.07;;;8.80;97.30;;;;;;4949996;28;20187;-83
2024/03/13 07:50:54;;;;;;;14.93;5.00;;;8.80;97.30;;;;;;4950134;28;20222;-82
2024/03/13 07:53:21;;;;;;;6.10;3.00;;;8.90;97.30;;;;;;4955609;28;20567;-83
2024/03/13 07:55:47;;;;;;;4.30;4.00;;;8.90;97.30;;;;;;4946101;28;20313;-83
2024/03/13 07:58:13;;;;;;;8.83;4.77;;;9.10;97.30;;;;;;4945788;28;20427;-82
2024/03/13 08:00:39;;;;;;;7.03;2.10;;;9.20;97.30;;;;;;4953466;28;21003;-82
2024/03/13 08:03:04;;;;;;;8.53;4.70;;;9.30;97.30;;;;;;4975685;28;20454;-82
2024/03/13 08:05:30;;;;;;;11.70;3.50;;;9.30;97.30;;;;;;4953173;28;20646;-83
2024/03/13 08:07:56;;;;;;;4.33;4.07;;;9.50;97.30;;;;;;4958187;28;20214;-82
2024/03/13 08:10:25;;;;;;;12.87;4.67;;;9.50;97.30;;;;;;4966072;28;20238;-83
2024/03/13 08:12:56;;;;;;;9.17;5.10;;;9.60;97.30;;;;;;4963965;28;20531;-83
2024/03/13 08:15:21;;;;;;;12.87;5.33;;;9.70;97.30;;;;;;4961180;28;20474;-82
2024/03/13 08:17:47;;;;;;;3.73;3.53;;;9.70;97.30;;;;;;4956633;28;20936;-83
2024/03/13 08:20:14;;;;;;;25.13;6.97;;;9.80;97.30;;;;;;4958056;28;20237;-83
2024/03/13 08:22:43;;;;;;;7.40;5.17;;;9.80;97.30;;;;;;4953035;28;20249;-83
2024/03/13 08:25:11;;;;;;;6.73;3.13;;;9.90;97.30;;;;;;4953473;28;20426;-83
2024/03/13 08:27:37;;;;;;;11.80;5.20;;;10.00;97.30;;;;;;4956776;28;20728;-83
2024/03/13 08:30:03;;;;;;;7.07;5.80;;;10.10;97.30;;;;;;4953702;28;20421;-83
2024/03/13 08:32:28;;;;;;;10.27;4.73;;;10.30;97.30;;;;;;4969649;28;20206;-83
2024/03/13 08:34:54;;;;;;;20.13;4.80;;;10.40;97.30;;;;;;4957757;28;20317;-83
2024/03/13 08:37:19;;;;;;;9.63;4.60;;;10.40;97.30;;;;;;4954599;28;20186;-83
2024/03/13 08:39:45;;;;;;;10.87;4.07;;;10.40;97.30;;;;;;4948103;28;20635;-83
2024/03/13 08:42:10;;;;;;;2.70;2.50;;;10.50;97.30;;;;;;4952486;28;20207;-83
2024/03/13 08:44:36;;;;;;;14.07;4.70;;;10.50;97.30;;;;;;4953019;28;20186;-86
2024/03/13 08:47:01;;;;;;;7.70;5.90;;;10.60;97.30;;;;;;4952472;28;20261;-83
2024/03/13 08:49:27;;;;;;;5.77;4.07;;;10.70;97.30;;;;;;4947678;28;20680;-83
2024/03/13 08:51:53;;;;;;;8.57;4.33;;;10.90;97.30;;;;;;4956482;28;20182;-83
2024/03/13 08:54:18;;;;;;;7.77;5.87;;;11.00;97.30;;;;;;4957309;28;20596;-83
2024/03/13 08:56:45;;;;;;;11.07;6.60;;;11.00;97.30;;;;;;4956830;28;20445;-83
2024/03/13 08:59:11;;;;;;;11.03;4.90;;;11.00;97.30;;;;;;4952637;28;20179;-83
2024/03/13 09:01:44;;;;;;;4.53;4.30;;;11.10;97.30;;;;;;4969373;28;20425;-84
2024/03/13 09:04:10;;;;;;;14.10;4.03;;;11.30;97.30;;;;;;4947571;28;20183;-84
2024/03/13 09:06:36;;;;;;;5.77;4.13;;;11.40;97.30;;;;;;4947202;28;20592;-84
2024/03/13 09:09:06;;;;;;;5.43;4.40;;;11.50;97.30;;;;;;4949062;29;20421;-83
2024/03/13 09:11:32;;;;;;;6.67;5.07;;;11.40;97.30;;;;;;4947563;28;20845;-83
2024/03/13 09:14:03;;;;;;;26.83;6.40;;;11.50;97.30;;;;;;4949384;28;20525;-83
2024/03/13 09:16:32;;;;;;;15.30;5.40;;;11.60;97.30;;;;;;4969031;28;20480;-83
2024/03/13 09:18:58;;;;;;;22.33;8.43;;;11.50;97.30;;;;;;4964834;28;20429;-83
2024/03/13 09:21:24;;;;;;;12.60;5.73;;;11.60;97.30;;;;;;4947636;28;20430;-83
2024/03/13 09:23:53;;;;;;;9.40;5.50;;;11.70;97.30;;;;;;4951698;28;20492;-83
2024/03/13 09:26:18;;;;;;;12.10;3.93;;;11.80;97.20;;;;;;4947870;28;20426;-83
2024/03/13 09:28:48;;;;;;;4.73;4.30;;;11.70;97.00;;;;;;4965010;28;20521;-83
2024/03/13 09:31:13;;;;;;;3.13;3.00;;;11.80;97.30;;;;;;4959396;28;20437;-84
2024/03/13 09:33:39;;;;;;;8.77;6.07;;;11.80;97.30;;;;;;4946887;28;21022;-83
2024/03/13 09:36:14;;;;;;;6.50;4.57;;;11.90;96.80;;;;;;4954847;28;20641;-84
2024/03/13 09:38:44;;;;;;;12.83;5.20;;;12.00;96.10;;;;;;4950556;28;20174;-83
2024/03/13 09:41:13;;;;;;;5.77;4.30;;;12.00;96.60;;;;;;4969763;28;20415;-83
2024/03/13 09:43:39;;;;;;;2.63;2.40;;;12.10;95.70;;;;;;4947401;28;21065;-83
2024/03/13 09:46:15;;;;;;;9.30;4.83;;;12.20;95.60;;;;;;4952377;29;20525;-84
2024/03/13 09:48:42;;;;;;;4.83;4.40;;;12.30;95.50;;;;;;4944142;28;20421;-83
2024/03/13 09:51:09;;;;;;;12.57;6.10;;;12.50;95.20;;;;;;4944081;29;20502;-83
2024/03/13 09:53:36;;;;;;;11.77;3.00;;;12.40;95.00;;;;;;4971456;28;20621;-83
2024/03/13 09:56:03;;;;;;;14.27;7.17;;;12.50;94.90;;;;;;4951964;28;20419;-83
2024/03/13 09:58:30;;;;;;;6.20;4.10;;;12.50;95.00;;;;;;4951565;28;20484;-83
2024/03/13 10:01:00;;;;;;;12.47;8.93;;;12.70;95.50;;;;;;4955964;28;20939;-83
2024/03/13 10:03:27;;;;;;;14.13;7.77;;;12.70;94.30;;;;;;4951309;28;20882;-82
2024/03/13 10:06:05;;;;;;;4.83;2.63;;;12.50;94.50;;;;;;4953805;28;20509;-83
2024/03/13 10:08:34;;;;;;;9.50;6.30;;;12.10;95.10;;;;;;4951494;28;20429;-83
2024/03/13 10:11:01;;;;;;;5.30;2.90;;;11.90;95.70;;;;;;4970092;28;20501;-83
2024/03/13 10:13:29;;;;;;;6.10;4.37;;;11.70;96.10;;;;;;4946280;28;20546;-83
2024/03/13 10:15:56;;;;;;;8.53;3.73;;;11.60;95.90;;;;;;4970717;28;20868;-83
2024/03/13 10:18:22;;;;;;;5.70;3.30;;;12.00;96.60;;;;;;4963323;28;20514;-83
2024/03/13 10:21:08;;;;;;;8.40;4.60;;;12.50;96.40;;;;;;4967681;28;20525;-83
2024/03/13 10:23:39;;;;;;;6.93;4.50;;;12.90;94.10;;;;;;4964538;28;20476;-84
2024/03/13 10:26:07;;;;;;;6.07;3.50;;;12.80;93.60;;;;;;4947775;28;20915;-83
2024/03/13 10:28:34;;;;;;;2.60;2.20;;;12.80;93.60;;;;;;4955400;28;20505;-83
2024/03/13 10:31:00;;;;;;;7.50;4.60;;;12.60;94.00;;;;;;4948094;28;20849;-83
2024/03/13 10:33:25;;;;;;;6.20;3.00;;;12.30;93.40;;;;;;4951800;28;20548;-85
2024/03/13 10:35:51;;;;;;;6.83;2.80;;;12.30;94.30;;;;;;4952316;28;20177;-83
2024/03/13 10:38:17;;;;;;;9.63;6.80;;;12.10;94.10;;;;;;4967914;28;20181;-83
2024/03/13 10:40:43;;;;;;;9.30;5.00;;;12.10;95.10;;;;;;4948158;28;20410;-84
2024/03/13 10:43:11;;;;;;;15.40;5.47;;;12.00;95.30;;;;;;4955493;28;20630;-83
2024/03/13 10:45:38;;;;;;;6.93;6.30;;;12.00;95.10;;;;;;4944479;28;20422;-83
2024/03/13 10:48:10;;;;;;;3.47;2.63;;;12.10;94.70;;;;;;4952649;28;20446;-83
2024/03/13 10:50:35;;;;;;;4.63;3.40;;;12.00;94.50;;;;;;4952120;28;20520;-82
2024/03/13 10:53:02;;;;;;;3.63;3.20;;;11.90;94.80;;;;;;4959488;28;20911;-83
2024/03/13 10:55:27;;;;;;;3.50;3.30;;;11.80;94.60;;;;;;4964283;28;20183;-83
2024/03/13 10:57:53;;;;;;;15.43;4.97;;;12.00;95.10;;;;;;4954912;28;20421;-83
2024/03/13 11:00:21;;;;;;;12.90;2.40;;;12.40;94.20;;;;;;4955484;28;20179;-85
2024/03/13 11:02:49;;;;;;;6.67;4.30;;;12.70;92.30;;;;;;4951208;28;20209;-82
2024/03/13 11:05:15;;;;;;;6.50;2.90;;;13.10;92.50;;;;;;4949180;28;20429;-83
2024/03/13 11:07:41;;;;;;;4.73;4.10;;;13.50;91.60;;;;;;4954600;28;20409;-83
2024/03/13 11:10:21;;;;;;;3.27;2.03;;;13.90;89.80;;;;;;4965734;28;20909;-83
2024/03/13 11:12:49;;;;;;;3.73;2.60;;;14.00;88.90;;;;;;4945448;28;20198;-82
2024/03/13 11:15:23;;;;;;;5.93;2.60;;;14.00;87.30;;;;;;4951472;28;20933;-83
2024/03/13 11:17:53;;;;;;;11.83;3.00;;;13.90;87.00;;;;;;4951628;28;20426;-83
2024/03/13 11:20:21;;;;;;;3.93;3.43;;;13.90;88.70;;;;;;4954785;28;20406;-83
2024/03/13 11:22:53;;;;;;;6.73;4.50;;;14.00;88.70;;;;;;4972488;28;20834;-83
2024/03/13 11:25:21;;;;;;;8.07;5.57;;;14.10;89.50;;;;;;4951918;28;20521;-85
2024/03/13 11:27:55;;;;;;;8.20;3.07;;;14.30;89.20;;;;;;4948229;28;20432;-83
2024/03/13 11:30:21;;;;;;;5.67;3.20;;;14.10;88.70;;;;;;4972913;28;20418;-83
2024/03/13 11:32:48;;;;;;;9.90;5.27;;;13.70;90.00;;;;;;4958236;28;20966;-84
2024/03/13 11:35:15;;;;;;;4.20;2.40;;;13.50;90.50;;;;;;4970085;28;20181;-83
2024/03/13 11:37:41;;;;;;;6.60;4.53;;;13.30;91.40;;;;;;4974050;28;20496;-82
2024/03/13 11:40:08;;;;;;;12.80;5.83;;;13.20;92.40;;;;;;4955385;28;20445;-83
2024/03/13 11:42:33;;;;;;;14.50;3.50;;;13.30;91.80;;;;;;4955847;28;20975;-82
2024/03/13 11:45:17;;;;;;;10.10;5.57;;;13.20;92.10;;;;;;4955675;28;20433;-83
2024/03/13 11:47:47;;;;;;;4.60;2.83;;;13.00;91.60;;;;;;4948523;28;20222;-83
2024/03/13 11:50:13;;;;;;;5.47;3.07;;;13.10;92.70;;;;;;4952640;28;21117;-82
2024/03/13 11:53:04;;;;;;;8.00;4.13;;;13.30;91.40;;;;;;4955176;28;20524;-82
2024/03/13 11:55:30;;;;;;;4.30;2.00;;;13.20;90.80;;;;;;4955134;28;20430;-82
2024/03/13 11:58:18;;;;;;;11.23;3.73;;;13.00;90.30;;;;;;4972853;28;20410;-85
2024/03/13 12:00:44;;;;;;;6.33;3.90;;;13.10;90.50;;;;;;4951457;28;20610;-83
2024/03/13 12:03:13;;;;;;;4.00;3.73;;;13.00;90.50;;;;;;4974543;28;20449;-81
2024/03/13 12:05:40;;;;;;;5.53;2.93;;;13.00;90.80;;;;;;4955074;28;20932;-82
2024/03/13 12:08:08;;;;;;;6.57;3.93;;;13.10;90.90;;;;;;4954726;28;20421;-82
2024/03/13 12:10:34;;;;;;;9.97;4.50;;;13.20;90.50;;;;;;4951619;28;20421;-82
2024/03/13 12:13:00;;;;;;;21.77;3.80;;;13.10;90.60;;;;;;4953749;28;20453;-82
2024/03/13 12:15:26;;;;;;;6.33;2.57;;;13.00;90.70;;;;;;4956773;28;20432;-83
2024/03/13 12:17:55;;;;;;;6.57;3.63;;;12.90;90.70;;;;;;4975714;28;20177;-83
2024/03/13 12:20:28;;;;;;;2.53;2.33;;;12.80;91.30;;;;;;4955261;28;20423;-83
2024/03/13 12:22:54;;;;;;;3.20;3.00;;;12.70;90.80;;;;;;4952631;28;20472;-85
2024/03/13 12:25:20;;;;;;;2.93;2.13;;;12.60;90.50;;;;;;4950521;28;20427;-84
2024/03/13 12:27:49;;;;;;;2.73;2.53;;;12.50;90.40;;;;;;4957530;28;20790;-85
2024/03/13 12:30:19;;;;;;;1.97;1.37;;;12.50;91.00;;;;;;4955418;28;20186;-82
2024/03/13 12:32:50;;;;;;;1.50;1.40;;;12.50;91.20;;;;;;4955342;28;20477;-83
2024/03/13 12:35:16;;;;;;;6.20;2.27;;;12.50;91.40;;;;;;4955705;28;20422;-83
2024/03/13 12:37:48;;;;;;;5.07;2.13;;;12.50;91.80;;;;;;4974837;28;20488;-82
2024/03/13 12:40:16;;;;;;;1.90;1.80;;;12.40;92.00;;;;;;4954014;28;20456;-83
2024/03/13 12:42:41;;;;;;;2.40;1.90;;;12.40;92.80;;;;;;4972492;28;20493;-83
2024/03/13 12:45:08;;;;;;;4.57;4.30;;;12.40;93.10;;;;;;4952282;28;20785;-84
2024/03/13 12:47:34;;;;;;;5.70;3.00;;;12.50;93.10;;;;;;4953505;28;20233;-84
2024/03/13 12:50:00;;;;;;;1.63;1.30;;;12.60;93.10;;;;;;4952287;28;20497;-83
2024/03/13 12:52:30;;;;;;;3.13;2.93;;;12.70;93.30;;;;;;4954420;28;20501;-82
2024/03/13 12:54:56;;;;;;;1.37;1.27;;;12.80;92.70;;;;;;4955075;28;20214;-83
2024/03/13 12:57:21;;;;;;;1.53;1.23;;;13.00;92.00;;;;;;4954291;28;20429;-81
2024/03/13 12:59:51;;;;;;;3.77;2.53;;;13.20;91.40;;;;;;4954912;28;20465;-83
2024/03/13 13:02:17;;;;;;;1.87;1.77;;;13.70;90.20;;;;;;4951949;28;20589;-85
2024/03/13 13:04:44;;;;;;;1.93;1.83;;;14.30;89.60;;;;;;4952243;28;20436;-82
2024/03/13 13:07:10;;;;;;;3.77;2.23;;;14.70;87.20;;;;;;4956903;28;20426;-82
2024/03/13 13:09:36;;;;;;;1.43;1.10;;;14.50;86.80;;;;;;4954785;28;20673;-85
2024/03/13 13:12:02;;;;;;;3.07;1.43;;;14.00;87.40;;;;;;4950830;28;20225;-82
2024/03/13 13:14:27;;;;;;;1.07;1.03;;;13.60;88.40;;;;;;4953673;28;20498;-84
2024/03/13 13:16:55;;;;;;;3.33;2.70;;;14.10;88.60;;;;;;4974945;28;20253;-85
2024/03/13 13:19:20;;;;;;;7.43;2.43;;;14.60;86.80;;;;;;4954191;28;20189;-85
2024/03/13 13:21:46;;;;;;;2.53;1.67;;;15.00;85.80;;;;;;4951352;28;20433;-85
2024/03/13 13:24:12;;;;;;;6.40;1.80;;;15.40;85.00;;;;;;4953997;28;20183;-83
2024/03/13 13:26:38;;;;;;;3.80;3.07;;;15.20;84.70;;;;;;4955848;28;20187;-83
2024/03/13 13:29:04;;;;;;;1.03;0.93;;;14.90;85.10;;;;;;4955835;28;20428;-83
2024/03/13 13:31:30;;;;;;;4.50;1.80;;;14.90;85.60;;;;;;4956527;28;20187;-82
2024/03/13 13:33:55;;;;;;;1.43;1.37;;;14.60;86.30;;;;;;4974268;28;20470;-84
2024/03/13 13:36:22;;;;;;;3.07;1.43;;;15.20;85.70;;;;;;4954654;28;20189;-83
2024/03/13 13:38:48;;;;;;;1.83;1.33;;;14.90;84.90;;;;;;4956617;28;20189;-85
2024/03/13 13:41:14;;;;;;;2.80;2.03;;;14.40;86.20;;;;;;4973610;28;20456;-83
2024/03/13 13:43:40;;;;;;;1.47;1.10;;;14.10;86.80;;;;;;4956137;28;20489;-83
2024/03/13 13:46:10;;;;;;;0.90;0.80;;;13.80;88.00;;;;;;4952693;28;20298;-85
2024/03/13 13:48:36;;;;;;;1.10;1.00;;;14.00;88.00;;;;;;4948816;28;20193;-85
2024/03/13 13:51:01;;;;;;;2.53;1.87;;;14.70;87.40;;;;;;4956244;28;20425;-82
2024/03/13 13:53:29;;;;;;;1.20;1.10;;;15.40;84.90;;;;;;4956485;28;20258;-84
2024/03/13 13:55:57;;;;;;;8.23;1.57;;;15.00;84.60;;;;;;4954542;28;20174;-85
2024/03/13 13:58:24;;;;;;;6.97;1.67;;;14.40;86.40;;;;;;4954713;28;20869;-85
2024/03/13 14:00:51;;;;;;;4.80;2.10;;;14.20;86.80;;;;;;4954972;28;20418;-84
2024/03/13 14:03:20;;;;;;;1.30;1.20;;;13.90;87.60;;;;;;4969748;28;20474;-85
2024/03/13 14:05:51;;;;;;;1.70;1.60;;;13.80;88.00;;;;;;4953860;28;20426;-82
2024/03/13 14:08:19;;;;;;;0.90;0.80;;;14.00;87.90;;;;;;4952598;28;20428;-83
2024/03/13 14:10:45;;;;;;;1.60;1.50;;;14.80;87.00;;;;;;4956676;28;20426;-84
2024/03/13 14:13:11;;;;;;;1.50;1.40;;;15.20;85.10;;;;;;4954390;28;20466;-84
2024/03/13 14:15:37;;;;;;;3.17;1.73;;;15.00;84.60;;;;;;4947978;28;20525;-83
2024/03/13 14:18:09;;;;;;;1.10;1.00;;;15.10;84.40;;;;;;4952471;28;20242;-84
2024/03/13 14:20:36;;;;;;;1.20;1.10;;;15.20;85.00;;;;;;4953983;28;20430;-83
2024/03/13 14:23:02;;;;;;;1.10;1.00;;;15.60;83.80;;;;;;4952271;28;20449;-83
2024/03/13 14:25:28;;;;;;;1.87;1.53;;;16.00;82.80;;;;;;4973087;28;20430;-82
2024/03/13 14:27:53;;;;;;;1.20;1.10;;;15.70;83.00;;;;;;4954672;28;20517;-85
2024/03/13 14:30:19;;;;;;;1.87;1.40;;;15.40;83.90;;;;;;4952670;28;20183;-85
2024/03/13 14:32:44;;;;;;;3.33;1.30;;;15.20;84.40;;;;;;4952741;28;20577;-84
2024/03/13 14:35:11;;;;;;;1.00;1.00;;;15.70;83.90;;;;;;4957019;28;20667;-82
2024/03/13 14:37:37;;;;;;;1.07;0.97;;;16.50;83.30;;;;;;4960176;28;20205;-82
2024/03/13 14:40:04;;;;;;;1.43;1.33;;;17.00;82.20;;;;;;4954612;28;20505;-83
2024/03/13 14:42:32;;;;;;;18.40;1.30;;;17.30;80.20;;;;;;4950010;28;20462;-82
2024/03/13 14:44:58;;;;;;;1.10;1.10;;;17.70;80.30;;;;;;4950894;28;20426;-83
2024/03/13 14:47:23;;;;;;;3.43;1.30;;;17.70;79.40;;;;;;4952098;28;20427;-82
2024/03/13 14:49:49;;;;;;;1.10;1.00;;;17.40;80.50;;;;;;4952268;28;20409;-85
2024/03/13 14:52:15;;;;;;;1.30;1.20;;;17.40;80.20;;;;;;4949902;28;20242;-85
2024/03/13 14:54:40;;;;;;;1.50;1.50;;;17.60;79.50;;;;;;4969952;28;20229;-83
2024/03/13 14:57:06;;;;;;;2.87;2.20;;;17.50;79.00;;;;;;4952763;28;20645;-82
2024/03/13 14:59:33;;;;;;;2.97;1.60;;;16.60;80.50;;;;;;4953743;28;20178;-82
2024/03/13 15:02:00;;;;;;;2.67;1.87;;;16.50;81.80;;;;;;4954061;28;20453;-83
2024/03/13 15:04:25;;;;;;;1.70;1.60;;;16.60;81.30;;;;;;4972235;28;20652;-83
2024/03/13 15:06:51;;;;;;;1.23;1.13;;;16.90;80.40;;;;;;4958133;28;20484;-82
2024/03/13 15:09:19;;;;;;;1.30;1.20;;;16.80;80.50;;;;;;4958966;28;20186;-82
2024/03/13 15:11:44;;;;;;;1.40;1.20;;;16.70;80.60;;;;;;4957978;28;20221;-83
2024/03/13 15:14:10;;;;;;;1.20;1.10;;;16.50;80.90;;;;;;4957784;28;20505;-82
2024/03/13 15:16:36;;;;;;;1.87;1.50;;;15.70;81.80;;;;;;4956731;28;20178;-83
2024/03/13 15:19:01;;;;;;;5.03;1.90;;;15.30;82.60;;;;;;4957399;28;20473;-83
2024/03/13 15:21:27;;;;;;;3.03;2.03;;;14.80;83.60;;;;;;4973575;28;20185;-83
2024/03/13 15:23:53;;;;;;;2.27;1.80;;;14.60;84.60;;;;;;4958093;28;20256;-83
2024/03/13 15:26:18;;;;;;;1.50;1.40;;;14.40;85.70;;;;;;4954875;28;20453;-83
2024/03/13 15:28:44;;;;;;;1.20;1.10;;;14.20;85.80;;;;;;4957586;28;20224;-83
2024/03/13 15:31:10;;;;;;;1.00;0.90;;;14.00;87.00;;;;;;4957527;28;20179;-83
2024/03/13 15:33:38;;;;;;;1.27;1.17;;;13.80;87.40;;;;;;4957533;28;20206;-84
2024/03/13 15:36:06;;;;;;;4.10;1.97;;;13.70;87.50;;;;;;4958478;28;20525;-83
2024/03/13 15:38:34;;;;;;;1.20;1.10;;;13.70;88.10;;;;;;4958144;28;20414;-83
2024/03/13 15:41:02;;;;;;;1.00;0.90;;;13.70;88.50;;;;;;4956438;28;20433;-83
2024/03/13 15:43:28;;;;;;;1.40;1.30;;;13.70;88.50;;;;;;4973592;28;20446;-82
2024/03/13 15:45:53;;;;;;;6.33;3.20;;;13.60;88.60;;;;;;4958308;28;20429;-82
2024/03/13 15:48:22;;;;;;;1.20;1.10;;;13.50;88.50;;;;;;4982057;28;20217;-83
2024/03/13 15:50:48;;;;;;;1.00;0.90;;;13.30;88.70;;;;;;4957225;28;20182;-83
2024/03/13 15:53:14;;;;;;;2.10;1.57;;;13.20;89.10;;;;;;4973007;28;20481;-84
2024/03/13 15:55:39;;;;;;;1.90;1.83;;;13.20;89.50;;;;;;4956591;28;20428;-83
2024/03/13 15:58:05;;;;;;;4.10;1.57;;;13.10;89.60;;;;;;4957261;28;20548;-83
2024/03/13 16:00:30;;;;;;;1.10;0.93;;;12.90;89.70;;;;;;4974579;28;20187;-84
2024/03/13 16:03:00;;;;;;;1.80;1.70;;;12.90;90.00;;;;;;4956401;28;20762;-83
2024/03/13 16:05:26;;;;;;;1.90;1.70;;;12.90;90.30;;;;;;4956875;28;20190;-83
2024/03/13 16:08:07;;;;;;;3.43;1.10;;;12.90;90.30;;;;;;4975379;28;20810;-83
2024/03/13 16:10:33;;;;;;;1.60;1.30;;;13.00;90.60;;;;;;4957551;28;20421;-85
2024/03/13 16:12:59;;;;;;;1.30;1.20;;;13.00;90.40;;;;;;4957127;28;20438;-84
2024/03/13 16:15:26;;;;;;;1.13;1.03;;;13.00;90.30;;;;;;4973482;28;20645;-84
2024/03/13 16:17:51;;;;;;;3.73;1.90;;;12.90;90.50;;;;;;4957722;28;20787;-84
2024/03/13 16:20:17;;;;;;;1.67;1.17;;;12.90;90.50;;;;;;4955974;28;20418;-86
2024/03/13 16:22:45;;;;;;;3.00;1.70;;;12.90;90.80;;;;;;4975456;28;20194;-84
2024/03/13 16:25:15;;;;;;;1.43;1.33;;;12.80;90.90;;;;;;4957123;28;20183;-83
2024/03/13 16:27:41;;;;;;;3.93;1.60;;;12.70;90.80;;;;;;4957048;28;20745;-84
2024/03/13 16:30:09;;;;;;;2.83;1.40;;;12.70;91.00;;;;;;4957098;28;20639;-84
2024/03/13 16:32:34;;;;;;;1.67;1.40;;;12.60;91.20;;;;;;4987075;28;20438;-85
2024/03/13 16:35:00;;;;;;;2.07;1.93;;;12.50;91.30;;;;;;4976297;28;20489;-84
2024/03/13 16:37:25;;;;;;;2.20;2.00;;;12.50;91.40;;;;;;4992899;28;20243;-85
2024/03/13 16:39:51;;;;;;;2.33;1.63;;;12.50;91.50;;;;;;4975831;28;20201;-83
2024/03/13 16:42:17;;;;;;;1.20;1.10;;;12.50;91.90;;;;;;4975058;28;20198;-83
2024/03/13 16:44:42;;;;;;;1.43;1.27;;;12.50;92.00;;;;;;4994059;28;20175;-85
2024/03/13 16:47:11;;;;;;;4.37;1.33;;;12.40;92.20;;;;;;4976257;28;20175;-83
2024/03/13 16:49:37;;;;;;;1.20;1.10;;;12.40;91.80;;;;;;4985149;28;20225;-85
2024/03/13 16:52:03;;;;;;;5.27;3.50;;;12.30;92.30;;;;;;4972314;28;20471;-85
2024/03/13 16:54:28;;;;;;;1.30;1.20;;;12.30;92.30;;;;;;4957091;28;20221;-85
2024/03/13 16:56:54;;;;;;;1.50;1.40;;;12.30;92.40;;;;;;4957829;28;20269;-83
2024/03/13 16:59:20;;;;;;;1.37;1.27;;;12.30;92.60;;;;;;4973776;28;20174;-85
2024/03/13 17:01:46;;;;;;;1.20;1.10;;;12.30;93.00;;;;;;4973675;28;20832;-83
2024/03/13 17:04:13;;;;;;;1.77;1.37;;;12.20;92.90;;;;;;4956598;28;20179;-81
2024/03/13 17:06:38;;;;;;;1.10;1.00;;;12.20;93.40;;;;;;4956413;28;20429;-82
2024/03/13 17:09:09;;;;;;;2.37;2.20;;;12.20;93.30;;;;;;4968813;28;20422;-82
2024/03/13 17:11:35;;;;;;;1.90;1.53;;;12.10;93.40;;;;;;4973922;28;20182;-84
2024/03/13 17:14:02;;;;;;;1.53;1.37;;;12.10;93.70;;;;;;4955354;28;20573;-84
2024/03/13 17:16:29;;;;;;;4.83;2.17;;;12.00;93.70;;;;;;4956817;28;20432;-85
2024/03/13 17:18:55;;;;;;;2.00;1.70;;;12.00;93.90;;;;;;4956831;28;20446;-82
2024/03/13 17:21:21;;;;;;;6.70;2.10;;;12.00;94.10;;;;;;4956386;28;20410;-85
2024/03/13 17:23:47;;;;;;;1.57;1.47;;;12.00;94.00;;;;;;4956841;28;20194;-82
2024/03/13 17:26:13;;;;;;;1.37;1.00;;;11.90;94.30;;;;;;4973394;28;20201;-82
2024/03/13 17:28:38;;;;;;;1.30;1.20;;;11.90;94.30;;;;;;4974118;28;20433;-82
2024/03/13 17:31:04;;;;;;;1.70;1.40;;;11.90;94.60;;;;;;4949433;29;20427;-82
2024/03/13 17:33:30;;;;;;;1.67;1.57;;;11.90;94.50;;;;;;4947670;28;20280;-85
2024/03/13 17:35:56;;;;;;;5.33;2.90;;;11.90;94.90;;;;;;4965732;28;20676;-82
2024/03/13 17:38:21;;;;;;;2.93;2.20;;;11.80;94.80;;;;;;4971155;28;20178;-84
2024/03/13 17:40:47;;;;;;;2.90;1.60;;;11.80;94.80;;;;;;4956023;28;20429;-82
2024/03/13 17:43:15;;;;;;;1.53;1.43;;;11.80;95.00;;;;;;4948488;28;20683;-83
2024/03/13 17:45:41;;;;;;;2.50;2.03;;;11.80;94.90;;;;;;4944266;29;20182;-85
2024/03/13 17:48:09;;;;;;;2.30;1.80;;;11.80;95.10;;;;;;4962802;28;20415;-83